sensor_id;sensor_type;location;lat;lon;timestamp;temperature;humidity
12315;DHT22;23886;46.614;14.276;2023-06-19T00:00:03;17.20;99.90
12315;DHT22;23886;46.614;14.276;2023-06-19T00:02:38;17.30;99.90
12315;DHT22;23886;46.614;14.276;2023-06-19T00:05:07;17.20;99.90
12315;DHT22;23886;46.614;14.276;2023-06-19T00:07:35;17.00;99.90
12315;DHT22;23886;46.614;14.276;2023-06-19T00:10:03;17.10;99.90
12315;DHT22;23886;46.614;14.276;2023-06-19T00:12:30;17.00;99.90
12315;DHT22;23886;46.614;14.276;2023-06-19T00:14:57;17.00;99.90
12315;DHT22;23886;46.614;14.276;2023-06-19T00:17:24;17.00;99.90
12315;DHT22;23886;46.614;14.276;2023-06-19T00:19:53;16.90;99.90
12315;DHT22;23886;46.614;14.276;2023-06-19T00:22:21;16.90;99.90
12315;DHT22;23886;46.614;14.276;2023-06-19T00:24:48;16.80;99.90
12315;DHT22;23886;46.614;14.276;2023-06-19T00:27:17;16.80;99.90
12315;DHT22;23886;46.614;14.276;2023-06-19T00:29:44;16.90;99.90
12315;DHT22;23886;46.614;14.276;2023-06-19T00:32:11;16.90;99.90
12315;DHT22;23886;46.614;14.276;2023-06-19T00:34:38;16.90;99.90
12315;DHT22;23886;46.614;14.276;2023-06-19T00:37:07;16.80;99.90
12315;DHT22;23886;46.614;14.276;2023-06-19T00:39:36;16.80;99.90
12315;DHT22;23886;46.614;14.276;2023-06-19T00:42:04;16.80;99.90
12315;DHT22;23886;46.614;14.276;2023-06-19T00:44:31;16.80;99.90
12315;DHT22;23886;46.614;14.276;2023-06-19T00:46:58;16.80;99.90
12315;DHT22;23886;46.614;14.276;2023-06-19T00:49:27;16.70;99.90
12315;DHT22;23886;46.614;14.276;2023-06-19T00:51:55;16.70;99.90
12315;DHT22;23886;46.614;14.276;2023-06-19T00:54:22;16.60;99.90
12315;DHT22;23886;46.614;14.276;2023-06-19T00:56:51;16.50;99.90
12315;DHT22;23886;46.614;14.276;2023-06-19T00:59:19;16.40;99.90
12315;DHT22;23886;46.614;14.276;2023-06-19T01:01:48;16.40;99.90
12315;DHT22;23886;46.614;14.276;2023-06-19T01:04:15;16.30;99.90
12315;DHT22;23886;46.614;14.276;2023-06-19T01:06:46;16.40;99.90
12315;DHT22;23886;46.614;14.276;2023-06-19T01:09:18;16.30;99.90
12315;DHT22;23886;46.614;14.276;2023-06-19T01:11:50;16.10;99.90
12315;DHT22;23886;46.614;14.276;2023-06-19T01:14:25;16.00;99.90
12315;DHT22;23886;46.614;14.276;2023-06-19T01:16:53;15.80;99.90
12315;DHT22;23886;46.614;14.276;2023-06-19T01:19:21;15.80;99.90
12315;DHT22;23886;46.614;14.276;2023-06-19T01:21:49;15.70;99.90
12315;DHT22;23886;46.614;14.276;2023-06-19T01:24:17;15.70;99.90
12315;DHT22;23886;46.614;14.276;2023-06-19T01:26:44;15.70;99.90
12315;DHT22;23886;46.614;14.276;2023-06-19T01:29:13;15.70;99.90
12315;DHT22;23886;46.614;14.276;2023-06-19T01:31:47;15.80;99.90
12315;DHT22;23886;46.614;14.276;2023-06-19T01:34:17;15.80;99.90
12315;DHT22;23886;46.614;14.276;2023-06-19T01:36:47;15.80;99.90
12315;DHT22;23886;46.614;14.276;2023-06-19T01:39:18;15.80;99.90
12315;DHT22;23886;46.614;14.276;2023-06-19T01:41:45;15.90;99.90
12315;DHT22;23886;46.614;14.276;2023-06-19T01:44:13;15.80;99.90
12315;DHT22;23886;46.614;14.276;2023-06-19T01:46:40;15.80;99.90
12315;DHT22;23886;46.614;14.276;2023-06-19T01:49:08;15.70;99.90
12315;DHT22;23886;46.614;14.276;2023-06-19T01:51:36;16.00;99.90
12315;DHT22;23886;46.614;14.276;2023-06-19T01:54:03;15.90;99.90
12315;DHT22;23886;46.614;14.276;2023-06-19T01:56:32;15.90;99.90
12315;DHT22;23886;46.614;14.276;2023-06-19T01:58:59;15.70;99.90
12315;DHT22;23886;46.614;14.276;2023-06-19T02:01:26;15.60;99.90
12315;DHT22;23886;46.614;14.276;2023-06-19T02:03:53;15.50;99.90
12315;DHT22;23886;46.614;14.276;2023-06-19T02:06:20;15.40;99.90
12315;DHT22;23886;46.614;14.276;2023-06-19T02:08:48;15.40;99.90
12315;DHT22;23886;46.614;14.276;2023-06-19T02:11:15;15.30;99.90
12315;DHT22;23886;46.614;14.276;2023-06-19T02:13:43;15.30;99.90
12315;DHT22;23886;46.614;14.276;2023-06-19T02:16:10;15.10;99.90
12315;DHT22;23886;46.614;14.276;2023-06-19T02:18:37;15.00;99.90
12315;DHT22;23886;46.614;14.276;2023-06-19T02:21:04;15.00;99.90
12315;DHT22;23886;46.614;14.276;2023-06-19T02:23:31;15.00;99.90
12315;DHT22;23886;46.614;14.276;2023-06-19T02:25:58;15.00;99.90
12315;DHT22;23886;46.614;14.276;2023-06-19T02:28:25;14.80;99.90
12315;DHT22;23886;46.614;14.276;2023-06-19T02:30:54;14.70;99.90
12315;DHT22;23886;46.614;14.276;2023-06-19T02:33:21;14.70;99.90
12315;DHT22;23886;46.614;14.276;2023-06-19T02:35:48;14.70;99.90
12315;DHT22;23886;46.614;14.276;2023-06-19T02:38:15;14.70;99.90
12315;DHT22;23886;46.614;14.276;2023-06-19T02:40:44;14.70;99.90
12315;DHT22;23886;46.614;14.276;2023-06-19T02:43:11;14.70;99.90
12315;DHT22;23886;46.614;14.276;2023-06-19T02:45:38;14.70;99.90
12315;DHT22;23886;46.614;14.276;2023-06-19T02:48:07;14.60;99.90
12315;DHT22;23886;46.614;14.276;2023-06-19T02:50:33;14.60;99.90
12315;DHT22;23886;46.614;14.276;2023-06-19T02:53:01;14.70;99.90
12315;DHT22;23886;46.614;14.276;2023-06-19T02:55:28;14.70;99.90
12315;DHT22;23886;46.614;14.276;2023-06-19T02:57:55;14.60;99.90
12315;DHT22;23886;46.614;14.276;2023-06-19T03:00:22;14.70;99.90
12315;DHT22;23886;46.614;14.276;2023-06-19T03:02:49;14.80;99.90
12315;DHT22;23886;46.614;14.276;2023-06-19T03:05:18;14.60;99.90
12315;DHT22;23886;46.614;14.276;2023-06-19T03:07:45;14.60;99.90
12315;DHT22;23886;46.614;14.276;2023-06-19T03:10:12;14.40;99.90
12315;DHT22;23886;46.614;14.276;2023-06-19T03:12:39;14.50;99.90
12315;DHT22;23886;46.614;14.276;2023-06-19T03:15:07;14.50;99.90
12315;DHT22;23886;46.614;14.276;2023-06-19T03:17:34;14.40;99.90
12315;DHT22;23886;46.614;14.276;2023-06-19T03:20:01;14.30;99.90
12315;DHT22;23886;46.614;14.276;2023-06-19T03:22:30;14.10;99.90
12315;DHT22;23886;46.614;14.276;2023-06-19T03:24:57;14.30;99.90
12315;DHT22;23886;46.614;14.276;2023-06-19T03:27:24;14.30;99.90
12315;DHT22;23886;46.614;14.276;2023-06-19T03:29:53;14.40;99.90
12315;DHT22;23886;46.614;14.276;2023-06-19T03:32:20;14.50;99.90
12315;DHT22;23886;46.614;14.276;2023-06-19T03:34:47;14.50;99.90
12315;DHT22;23886;46.614;14.276;2023-06-19T03:37:14;14.50;99.90
12315;DHT22;23886;46.614;14.276;2023-06-19T03:39:42;14.40;99.90
12315;DHT22;23886;46.614;14.276;2023-06-19T03:42:09;14.50;99.90
12315;DHT22;23886;46.614;14.276;2023-06-19T03:44:36;14.60;99.90
12315;DHT22;23886;46.614;14.276;2023-06-19T03:47:04;14.60;99.90
12315;DHT22;23886;46.614;14.276;2023-06-19T03:49:31;14.70;99.90
12315;DHT22;23886;46.614;14.276;2023-06-19T03:51:58;14.80;99.90
12315;DHT22;23886;46.614;14.276;2023-06-19T03:54:25;14.80;99.90
12315;DHT22;23886;46.614;14.276;2023-06-19T03:56:54;14.80;99.90
12315;DHT22;23886;46.614;14.276;2023-06-19T03:59:21;15.00;99.90
12315;DHT22;23886;46.614;14.276;2023-06-19T04:01:48;15.10;99.90
12315;DHT22;23886;46.614;14.276;2023-06-19T04:04:15;15.00;99.90
12315;DHT22;23886;46.614;14.276;2023-06-19T04:06:42;15.10;99.90
12315;DHT22;23886;46.614;14.276;2023-06-19T04:09:09;15.10;99.90
12315;DHT22;23886;46.614;14.276;2023-06-19T04:11:36;15.20;99.90
12315;DHT22;23886;46.614;14.276;2023-06-19T04:14:04;15.20;99.90
12315;DHT22;23886;46.614;14.276;2023-06-19T04:16:31;15.20;99.90
12315;DHT22;23886;46.614;14.276;2023-06-19T04:18:58;15.30;99.90
12315;DHT22;23886;46.614;14.276;2023-06-19T04:21:26;15.20;99.90
12315;DHT22;23886;46.614;14.276;2023-06-19T04:23:53;15.30;99.90
12315;DHT22;23886;46.614;14.276;2023-06-19T04:26:20;15.20;99.90
12315;DHT22;23886;46.614;14.276;2023-06-19T04:28:47;15.40;99.90
12315;DHT22;23886;46.614;14.276;2023-06-19T04:31:15;15.50;99.90
12315;DHT22;23886;46.614;14.276;2023-06-19T04:33:44;15.60;99.90
12315;DHT22;23886;46.614;14.276;2023-06-19T04:36:11;15.60;99.90
12315;DHT22;23886;46.614;14.276;2023-06-19T04:38:39;15.60;99.90
12315;DHT22;23886;46.614;14.276;2023-06-19T04:41:06;15.70;99.90
12315;DHT22;23886;46.614;14.276;2023-06-19T04:43:33;15.70;99.90
12315;DHT22;23886;46.614;14.276;2023-06-19T04:46:00;15.80;99.90
12315;DHT22;23886;46.614;14.276;2023-06-19T04:48:30;15.90;99.90
12315;DHT22;23886;46.614;14.276;2023-06-19T04:50:57;16.00;99.90
12315;DHT22;23886;46.614;14.276;2023-06-19T04:53:26;16.10;99.90
12315;DHT22;23886;46.614;14.276;2023-06-19T04:55:53;16.10;99.90
12315;DHT22;23886;46.614;14.276;2023-06-19T04:58:21;16.20;99.90
12315;DHT22;23886;46.614;14.276;2023-06-19T05:00:48;16.30;99.90
12315;DHT22;23886;46.614;14.276;2023-06-19T05:03:17;16.50;99.90
12315;DHT22;23886;46.614;14.276;2023-06-19T05:05:46;16.60;99.90
12315;DHT22;23886;46.614;14.276;2023-06-19T05:08:13;16.70;99.90
12315;DHT22;23886;46.614;14.276;2023-06-19T05:10:40;16.80;99.90
12315;DHT22;23886;46.614;14.276;2023-06-19T05:13:07;16.90;99.90
12315;DHT22;23886;46.614;14.276;2023-06-19T05:15:34;16.90;99.90
12315;DHT22;23886;46.614;14.276;2023-06-19T05:18:01;17.10;99.90
12315;DHT22;23886;46.614;14.276;2023-06-19T05:20:28;17.20;99.90
12315;DHT22;23886;46.614;14.276;2023-06-19T05:22:57;17.30;99.90
12315;DHT22;23886;46.614;14.276;2023-06-19T05:25:24;17.40;99.90
12315;DHT22;23886;46.614;14.276;2023-06-19T05:27:51;17.60;99.90
12315;DHT22;23886;46.614;14.276;2023-06-19T05:30:18;17.70;99.90
12315;DHT22;23886;46.614;14.276;2023-06-19T05:32:45;17.90;99.90
12315;DHT22;23886;46.614;14.276;2023-06-19T05:35:12;18.00;99.90
12315;DHT22;23886;46.614;14.276;2023-06-19T05:37:39;18.10;99.90
12315;DHT22;23886;46.614;14.276;2023-06-19T05:40:10;18.20;99.90
12315;DHT22;23886;46.614;14.276;2023-06-19T05:42:38;18.20;99.90
12315;DHT22;23886;46.614;14.276;2023-06-19T05:45:06;18.30;99.90
12315;DHT22;23886;46.614;14.276;2023-06-19T05:47:33;18.50;99.90
12315;DHT22;23886;46.614;14.276;2023-06-19T05:50:00;18.60;99.90
12315;DHT22;23886;46.614;14.276;2023-06-19T05:52:27;18.80;99.90
12315;DHT22;23886;46.614;14.276;2023-06-19T05:54:54;18.90;99.90
12315;DHT22;23886;46.614;14.276;2023-06-19T05:57:25;19.00;99.90
12315;DHT22;23886;46.614;14.276;2023-06-19T05:59:51;19.00;99.90
12315;DHT22;23886;46.614;14.276;2023-06-19T06:02:20;19.00;99.90
12315;DHT22;23886;46.614;14.276;2023-06-19T06:04:47;19.10;99.90
12315;DHT22;23886;46.614;14.276;2023-06-19T06:07:14;19.20;99.90
12315;DHT22;23886;46.614;14.276;2023-06-19T06:09:41;19.30;99.90
12315;DHT22;23886;46.614;14.276;2023-06-19T06:12:08;19.40;99.90
12315;DHT22;23886;46.614;14.276;2023-06-19T06:14:36;19.50;99.90
12315;DHT22;23886;46.614;14.276;2023-06-19T06:17:04;19.70;99.90
12315;DHT22;23886;46.614;14.276;2023-06-19T06:19:31;19.70;99.90
12315;DHT22;23886;46.614;14.276;2023-06-19T06:21:58;19.80;99.90
12315;DHT22;23886;46.614;14.276;2023-06-19T06:24:25;19.90;99.90
12315;DHT22;23886;46.614;14.276;2023-06-19T06:26:53;20.00;99.90
12315;DHT22;23886;46.614;14.276;2023-06-19T06:29:20;20.00;99.90
12315;DHT22;23886;46.614;14.276;2023-06-19T06:31:49;20.10;99.90
12315;DHT22;23886;46.614;14.276;2023-06-19T06:34:18;20.20;99.90
12315;DHT22;23886;46.614;14.276;2023-06-19T06:36:45;20.40;99.90
12315;DHT22;23886;46.614;14.276;2023-06-19T06:39:12;20.60;99.90
12315;DHT22;23886;46.614;14.276;2023-06-19T06:41:39;20.80;99.90
12315;DHT22;23886;46.614;14.276;2023-06-19T06:44:06;20.90;99.90
12315;DHT22;23886;46.614;14.276;2023-06-19T06:46:33;21.00;99.90
12315;DHT22;23886;46.614;14.276;2023-06-19T06:49:01;21.10;99.90
12315;DHT22;23886;46.614;14.276;2023-06-19T06:51:28;21.00;99.90
12315;DHT22;23886;46.614;14.276;2023-06-19T06:53:55;21.20;99.90
12315;DHT22;23886;46.614;14.276;2023-06-19T06:56:22;21.10;99.90
12315;DHT22;23886;46.614;14.276;2023-06-19T06:58:49;21.30;99.90
12315;DHT22;23886;46.614;14.276;2023-06-19T07:01:16;21.50;99.90
12315;DHT22;23886;46.614;14.276;2023-06-19T07:03:43;21.60;99.90
12315;DHT22;23886;46.614;14.276;2023-06-19T07:06:12;21.70;99.90
12315;DHT22;23886;46.614;14.276;2023-06-19T07:08:39;21.80;99.90
12315;DHT22;23886;46.614;14.276;2023-06-19T07:11:06;21.80;99.90
12315;DHT22;23886;46.614;14.276;2023-06-19T07:13:33;21.70;99.90
12315;DHT22;23886;46.614;14.276;2023-06-19T07:16:00;21.70;99.90
12315;DHT22;23886;46.614;14.276;2023-06-19T07:18:27;21.70;99.90
12315;DHT22;23886;46.614;14.276;2023-06-19T07:20:54;21.50;99.90
12315;DHT22;23886;46.614;14.276;2023-06-19T07:23:23;21.30;99.90
12315;DHT22;23886;46.614;14.276;2023-06-19T07:25:50;21.50;99.90
12315;DHT22;23886;46.614;14.276;2023-06-19T07:28:17;21.40;99.90
12315;DHT22;23886;46.614;14.276;2023-06-19T07:30:44;21.70;99.90
12315;DHT22;23886;46.614;14.276;2023-06-19T07:33:13;21.80;99.90
12315;DHT22;23886;46.614;14.276;2023-06-19T07:35:40;21.90;99.90
12315;DHT22;23886;46.614;14.276;2023-06-19T07:38:07;22.20;99.90
12315;DHT22;23886;46.614;14.276;2023-06-19T07:40:36;22.40;99.90
12315;DHT22;23886;46.614;14.276;2023-06-19T07:43:03;22.80;99.90
12315;DHT22;23886;46.614;14.276;2023-06-19T07:45:30;22.80;99.90
12315;DHT22;23886;46.614;14.276;2023-06-19T07:47:57;22.80;99.90
12315;DHT22;23886;46.614;14.276;2023-06-19T07:50:24;23.10;99.90
12315;DHT22;23886;46.614;14.276;2023-06-19T07:52:51;23.50;99.90
12315;DHT22;23886;46.614;14.276;2023-06-19T07:55:18;23.80;99.90
12315;DHT22;23886;46.614;14.276;2023-06-19T07:57:46;23.80;99.90
12315;DHT22;23886;46.614;14.276;2023-06-19T08:00:14;23.70;99.90
12315;DHT22;23886;46.614;14.276;2023-06-19T08:02:41;23.60;99.90
12315;DHT22;23886;46.614;14.276;2023-06-19T08:05:09;23.60;99.90
12315;DHT22;23886;46.614;14.276;2023-06-19T08:07:36;23.60;99.90
12315;DHT22;23886;46.614;14.276;2023-06-19T08:10:04;23.50;99.90
12315;DHT22;23886;46.614;14.276;2023-06-19T08:12:31;23.60;99.90
12315;DHT22;23886;46.614;14.276;2023-06-19T08:15:00;23.50;99.90
12315;DHT22;23886;46.614;14.276;2023-06-19T08:17:27;23.40;99.90
12315;DHT22;23886;46.614;14.276;2023-06-19T08:19:54;23.30;99.90
12315;DHT22;23886;46.614;14.276;2023-06-19T08:22:21;23.30;99.90
12315;DHT22;23886;46.614;14.276;2023-06-19T08:24:48;23.50;99.90
12315;DHT22;23886;46.614;14.276;2023-06-19T08:27:15;23.80;99.90
12315;DHT22;23886;46.614;14.276;2023-06-19T08:29:42;23.70;99.90
12315;DHT22;23886;46.614;14.276;2023-06-19T08:32:11;23.80;99.90
12315;DHT22;23886;46.614;14.276;2023-06-19T08:34:38;24.20;99.90
12315;DHT22;23886;46.614;14.276;2023-06-19T08:37:05;24.40;99.90
12315;DHT22;23886;46.614;14.276;2023-06-19T08:39:32;24.50;99.90
12315;DHT22;23886;46.614;14.276;2023-06-19T08:41:59;24.60;99.90
12315;DHT22;23886;46.614;14.276;2023-06-19T08:44:26;24.70;99.90
12315;DHT22;23886;46.614;14.276;2023-06-19T08:46:53;24.80;99.90
12315;DHT22;23886;46.614;14.276;2023-06-19T08:49:22;25.10;99.90
12315;DHT22;23886;46.614;14.276;2023-06-19T08:51:49;25.10;99.90
12315;DHT22;23886;46.614;14.276;2023-06-19T08:54:18;24.80;99.90
12315;DHT22;23886;46.614;14.276;2023-06-19T08:56:47;25.00;99.90
12315;DHT22;23886;46.614;14.276;2023-06-19T08:59:15;25.10;99.90
12315;DHT22;23886;46.614;14.276;2023-06-19T09:01:47;24.90;99.90
12315;DHT22;23886;46.614;14.276;2023-06-19T09:04:18;25.10;99.90
12315;DHT22;23886;46.614;14.276;2023-06-19T09:06:49;25.20;99.90
12315;DHT22;23886;46.614;14.276;2023-06-19T09:09:16;25.10;99.90
12315;DHT22;23886;46.614;14.276;2023-06-19T09:11:43;25.00;99.90
12315;DHT22;23886;46.614;14.276;2023-06-19T09:14:24;25.30;99.90
12315;DHT22;23886;46.614;14.276;2023-06-19T09:16:57;25.30;99.90
12315;DHT22;23886;46.614;14.276;2023-06-19T09:19:24;25.30;99.90
12315;DHT22;23886;46.614;14.276;2023-06-19T09:21:52;25.60;99.90
12315;DHT22;23886;46.614;14.276;2023-06-19T09:24:19;25.40;99.80
12315;DHT22;23886;46.614;14.276;2023-06-19T09:26:46;25.20;99.90
12315;DHT22;23886;46.614;14.276;2023-06-19T09:29:14;25.30;99.90
12315;DHT22;23886;46.614;14.276;2023-06-19T09:31:43;25.40;99.90
12315;DHT22;23886;46.614;14.276;2023-06-19T09:34:10;25.90;99.90
12315;DHT22;23886;46.614;14.276;2023-06-19T09:36:38;26.40;99.60
12315;DHT22;23886;46.614;14.276;2023-06-19T09:39:07;26.50;99.30
12315;DHT22;23886;46.614;14.276;2023-06-19T09:41:37;26.50;99.20
12315;DHT22;23886;46.614;14.276;2023-06-19T09:44:05;26.30;98.30
12315;DHT22;23886;46.614;14.276;2023-06-19T09:46:38;26.40;99.40
12315;DHT22;23886;46.614;14.276;2023-06-19T09:49:08;26.80;98.30
12315;DHT22;23886;46.614;14.276;2023-06-19T09:51:37;26.70;98.30
12315;DHT22;23886;46.614;14.276;2023-06-19T09:54:06;26.60;97.30
12315;DHT22;23886;46.614;14.276;2023-06-19T09:56:34;26.50;98.90
12315;DHT22;23886;46.614;14.276;2023-06-19T09:59:01;26.50;98.60
12315;DHT22;23886;46.614;14.276;2023-06-19T10:01:31;26.30;98.00
12315;DHT22;23886;46.614;14.276;2023-06-19T10:04:05;26.50;99.30
12315;DHT22;23886;46.614;14.276;2023-06-19T10:06:33;26.30;97.80
12315;DHT22;23886;46.614;14.276;2023-06-19T10:09:09;26.20;99.70
12315;DHT22;23886;46.614;14.276;2023-06-19T10:11:46;26.00;99.00
12315;DHT22;23886;46.614;14.276;2023-06-19T10:14:14;26.10;99.20
12315;DHT22;23886;46.614;14.276;2023-06-19T10:16:44;25.90;98.00
12315;DHT22;23886;46.614;14.276;2023-06-19T10:19:14;26.00;98.90
12315;DHT22;23886;46.614;14.276;2023-06-19T10:21:46;25.80;99.30
12315;DHT22;23886;46.614;14.276;2023-06-19T10:24:16;25.70;98.20
12315;DHT22;23886;46.614;14.276;2023-06-19T10:26:56;26.00;99.10
12315;DHT22;23886;46.614;14.276;2023-06-19T10:29:23;26.50;99.80
12315;DHT22;23886;46.614;14.276;2023-06-19T10:31:51;27.20;97.90
12315;DHT22;23886;46.614;14.276;2023-06-19T10:34:18;28.00;97.00
12315;DHT22;23886;46.614;14.276;2023-06-19T10:36:45;28.30;97.30
12315;DHT22;23886;46.614;14.276;2023-06-19T10:39:12;28.60;94.90
12315;DHT22;23886;46.614;14.276;2023-06-19T10:41:43;28.90;94.70
12315;DHT22;23886;46.614;14.276;2023-06-19T10:44:10;28.30;94.00
12315;DHT22;23886;46.614;14.276;2023-06-19T10:46:39;27.70;94.70
12315;DHT22;23886;46.614;14.276;2023-06-19T10:49:08;27.50;95.70
12315;DHT22;23886;46.614;14.276;2023-06-19T10:51:37;27.70;96.80
12315;DHT22;23886;46.614;14.276;2023-06-19T10:54:05;28.00;96.60
12315;DHT22;23886;46.614;14.276;2023-06-19T10:56:32;27.80;95.80
12315;DHT22;23886;46.614;14.276;2023-06-19T10:59:02;27.70;95.80
12315;DHT22;23886;46.614;14.276;2023-06-19T11:01:35;28.00;94.90
12315;DHT22;23886;46.614;14.276;2023-06-19T11:04:03;27.70;95.90
12315;DHT22;23886;46.614;14.276;2023-06-19T11:06:31;28.00;95.80
12315;DHT22;23886;46.614;14.276;2023-06-19T11:08:58;28.10;96.00
12315;DHT22;23886;46.614;14.276;2023-06-19T11:11:35;28.10;95.60
12315;DHT22;23886;46.614;14.276;2023-06-19T11:14:04;28.00;95.60
12315;DHT22;23886;46.614;14.276;2023-06-19T11:16:32;28.10;95.30
12315;DHT22;23886;46.614;14.276;2023-06-19T11:18:59;28.20;95.90
12315;DHT22;23886;46.614;14.276;2023-06-19T11:21:30;28.30;93.80
12315;DHT22;23886;46.614;14.276;2023-06-19T11:23:58;28.20;94.90
12315;DHT22;23886;46.614;14.276;2023-06-19T11:26:26;28.70;95.20
12315;DHT22;23886;46.614;14.276;2023-06-19T11:28:53;29.10;95.70
12315;DHT22;23886;46.614;14.276;2023-06-19T11:31:26;29.00;95.40
12315;DHT22;23886;46.614;14.276;2023-06-19T11:33:58;29.20;94.00
12315;DHT22;23886;46.614;14.276;2023-06-19T11:36:25;29.40;95.30
12315;DHT22;23886;46.614;14.276;2023-06-19T11:38:52;29.80;94.30
12315;DHT22;23886;46.614;14.276;2023-06-19T11:41:26;30.30;94.20
12315;DHT22;23886;46.614;14.276;2023-06-19T11:43:58;30.70;92.80
12315;DHT22;23886;46.614;14.276;2023-06-19T11:46:30;31.00;92.80
12315;DHT22;23886;46.614;14.276;2023-06-19T11:49:07;31.50;92.70
12315;DHT22;23886;46.614;14.276;2023-06-19T11:51:35;31.50;90.50
12315;DHT22;23886;46.614;14.276;2023-06-19T11:54:05;31.50;91.90
12315;DHT22;23886;46.614;14.276;2023-06-19T11:56:32;31.80;91.60
12315;DHT22;23886;46.614;14.276;2023-06-19T11:58:59;32.60;92.10
12315;DHT22;23886;46.614;14.276;2023-06-19T12:01:26;32.60;88.20
12315;DHT22;23886;46.614;14.276;2023-06-19T12:03:55;32.90;88.30
12315;DHT22;23886;46.614;14.276;2023-06-19T12:06:22;33.10;88.20
12315;DHT22;23886;46.614;14.276;2023-06-19T12:08:49;33.80;89.70
12315;DHT22;23886;46.614;14.276;2023-06-19T12:11:16;33.70;85.30
12315;DHT22;23886;46.614;14.276;2023-06-19T12:13:44;33.80;87.30
12315;DHT22;23886;46.614;14.276;2023-06-19T12:16:12;34.10;80.80
12315;DHT22;23886;46.614;14.276;2023-06-19T12:18:40;34.70;77.40
12315;DHT22;23886;46.614;14.276;2023-06-19T12:21:08;34.60;76.60
12315;DHT22;23886;46.614;14.276;2023-06-19T12:23:35;34.70;80.40
12315;DHT22;23886;46.614;14.276;2023-06-19T12:26:02;34.90;78.60
12315;DHT22;23886;46.614;14.276;2023-06-19T12:28:29;35.40;76.80
12315;DHT22;23886;46.614;14.276;2023-06-19T12:30:56;36.40;75.40
12315;DHT22;23886;46.614;14.276;2023-06-19T12:33:24;34.90;72.70
12315;DHT22;23886;46.614;14.276;2023-06-19T12:35:51;35.20;71.60
12315;DHT22;23886;46.614;14.276;2023-06-19T12:38:20;35.20;73.40
12315;DHT22;23886;46.614;14.276;2023-06-19T12:40:46;35.30;72.30
12315;DHT22;23886;46.614;14.276;2023-06-19T12:43:13;35.60;65.70
12315;DHT22;23886;46.614;14.276;2023-06-19T12:45:40;35.80;67.10
12315;DHT22;23886;46.614;14.276;2023-06-19T12:48:08;36.70;69.40
12315;DHT22;23886;46.614;14.276;2023-06-19T12:50:36;37.70;68.10
12315;DHT22;23886;46.614;14.276;2023-06-19T12:53:03;38.00;69.90
12315;DHT22;23886;46.614;14.276;2023-06-19T12:55:32;38.10;69.50
12315;DHT22;23886;46.614;14.276;2023-06-19T12:57:59;38.80;74.20
12315;DHT22;23886;46.614;14.276;2023-06-19T13:00:25;39.20;64.40
12315;DHT22;23886;46.614;14.276;2023-06-19T13:02:52;38.80;61.30
12315;DHT22;23886;46.614;14.276;2023-06-19T13:05:19;38.80;67.00
12315;DHT22;23886;46.614;14.276;2023-06-19T13:07:46;36.50;62.70
12315;DHT22;23886;46.614;14.276;2023-06-19T13:10:13;37.40;62.80
12315;DHT22;23886;46.614;14.276;2023-06-19T13:12:42;37.50;63.00
12315;DHT22;23886;46.614;14.276;2023-06-19T13:15:09;37.50;61.50
12315;DHT22;23886;46.614;14.276;2023-06-19T13:17:36;37.30;65.90
12315;DHT22;23886;46.614;14.276;2023-06-19T13:20:05;37.10;67.70
12315;DHT22;23886;46.614;14.276;2023-06-19T13:22:32;37.10;61.10
12315;DHT22;23886;46.614;14.276;2023-06-19T13:24:59;37.80;67.10
12315;DHT22;23886;46.614;14.276;2023-06-19T13:27:27;38.30;64.30
12315;DHT22;23886;46.614;14.276;2023-06-19T13:29:56;38.10;65.30
12315;DHT22;23886;46.614;14.276;2023-06-19T13:32:23;38.50;59.80
12315;DHT22;23886;46.614;14.276;2023-06-19T13:34:50;37.40;61.20
12315;DHT22;23886;46.614;14.276;2023-06-19T13:37:18;37.20;58.80
12315;DHT22;23886;46.614;14.276;2023-06-19T13:39:45;37.10;61.80
12315;DHT22;23886;46.614;14.276;2023-06-19T13:42:12;38.00;61.70
12315;DHT22;23886;46.614;14.276;2023-06-19T13:44:39;38.80;59.70
12315;DHT22;23886;46.614;14.276;2023-06-19T13:47:07;38.20;58.50
12315;DHT22;23886;46.614;14.276;2023-06-19T13:49:34;38.40;61.30
12315;DHT22;23886;46.614;14.276;2023-06-19T13:52:01;39.50;58.50
12315;DHT22;23886;46.614;14.276;2023-06-19T13:54:28;39.60;61.30
12315;DHT22;23886;46.614;14.276;2023-06-19T13:56:55;40.40;59.20
12315;DHT22;23886;46.614;14.276;2023-06-19T13:59:22;40.40;59.10
12315;DHT22;23886;46.614;14.276;2023-06-19T14:01:49;40.80;56.10
12315;DHT22;23886;46.614;14.276;2023-06-19T14:04:18;39.80;55.90
12315;DHT22;23886;46.614;14.276;2023-06-19T14:06:45;40.00;54.60
12315;DHT22;23886;46.614;14.276;2023-06-19T14:09:12;40.10;58.50
12315;DHT22;23886;46.614;14.276;2023-06-19T14:11:39;40.90;55.70
12315;DHT22;23886;46.614;14.276;2023-06-19T14:14:06;40.80;53.00
12315;DHT22;23886;46.614;14.276;2023-06-19T14:16:33;40.60;60.30
12315;DHT22;23886;46.614;14.276;2023-06-19T14:19:00;41.90;53.10
12315;DHT22;23886;46.614;14.276;2023-06-19T14:21:29;42.00;52.80
12315;DHT22;23886;46.614;14.276;2023-06-19T14:23:56;42.30;54.20
12315;DHT22;23886;46.614;14.276;2023-06-19T14:26:23;41.30;55.60
12315;DHT22;23886;46.614;14.276;2023-06-19T14:28:50;41.80;53.30
12315;DHT22;23886;46.614;14.276;2023-06-19T14:31:20;40.40;53.00
12315;DHT22;23886;46.614;14.276;2023-06-19T14:33:47;40.00;55.10
12315;DHT22;23886;46.614;14.276;2023-06-19T14:36:15;39.50;53.70
12315;DHT22;23886;46.614;14.276;2023-06-19T14:38:43;39.90;54.00
12315;DHT22;23886;46.614;14.276;2023-06-19T14:41:10;40.20;54.70
12315;DHT22;23886;46.614;14.276;2023-06-19T14:43:37;39.80;55.50
12315;DHT22;23886;46.614;14.276;2023-06-19T14:46:04;40.60;53.90
12315;DHT22;23886;46.614;14.276;2023-06-19T14:48:31;40.40;52.90
12315;DHT22;23886;46.614;14.276;2023-06-19T14:50:58;39.40;56.50
12315;DHT22;23886;46.614;14.276;2023-06-19T14:53:25;40.60;53.20
12315;DHT22;23886;46.614;14.276;2023-06-19T14:55:53;40.60;53.90
12315;DHT22;23886;46.614;14.276;2023-06-19T14:58:20;38.40;55.70
12315;DHT22;23886;46.614;14.276;2023-06-19T15:00:47;37.20;58.40
12315;DHT22;23886;46.614;14.276;2023-06-19T15:03:14;36.00;61.60
12315;DHT22;23886;46.614;14.276;2023-06-19T15:05:41;35.00;68.00
12315;DHT22;23886;46.614;14.276;2023-06-19T15:08:08;33.60;69.80
12315;DHT22;23886;46.614;14.276;2023-06-19T15:10:36;33.10;74.10
12315;DHT22;23886;46.614;14.276;2023-06-19T15:13:05;32.80;74.10
12315;DHT22;23886;46.614;14.276;2023-06-19T15:15:31;32.60;69.20
12315;DHT22;23886;46.614;14.276;2023-06-19T15:17:58;32.40;69.40